sensor_id;sensor_type;location;lat;lon;timestamp;P1;P2;P0
52290;PMS5003;39663;45.432;28.050;2022-10-20T00:02:14;6.0;6.0;
52290;PMS5003;39663;45.432;28.050;2022-10-20T00:02:46;4.0;4.0;
52290;PMS5003;39663;45.432;28.050;2022-10-20T00:03:18;7.0;5.0;
52290;PMS5003;39663;45.432;28.050;2022-10-20T00:03:50;5.0;5.0;
52290;PMS5003;39663;45.432;28.050;2022-10-20T00:04:22;7.0;6.0;
52290;PMS5003;39663;45.432;28.050;2022-10-20T00:04:54;5.0;5.0;
52290;PMS5003;39663;45.432;28.050;2022-10-20T00:05:25;5.0;5.0;
52290;PMS5003;39663;45.432;28.050;2022-10-20T00:06:05;4.0;4.0;
52290;PMS5003;39663;45.432;28.050;2022-10-20T00:06:37;3.0;3.0;
52290;PMS5003;39663;45.432;28.050;2022-10-20T00:07:08;6.0;5.0;
52290;PMS5003;39663;45.432;28.050;2022-10-20T00:07:40;4.0;4.0;
52290;PMS5003;39663;45.432;28.050;2022-10-20T00:08:11;5.0;5.0;
52290;PMS5003;39663;45.432;28.050;2022-10-20T00:08:43;6.0;6.0;
52290;PMS5003;39663;45.432;28.050;2022-10-20T00:09:15;6.0;5.0;
52290;PMS5003;39663;45.432;28.050;2022-10-20T00:09:47;4.0;4.0;
52290;PMS5003;39663;45.432;28.050;2022-10-20T00:10:18;4.0;4.0;
52290;PMS5003;39663;45.432;28.050;2022-10-20T00:10:53;6.0;4.0;
52290;PMS5003;39663;45.432;28.050;2022-10-20T00:11:25;5.0;5.0;
52290;PMS5003;39663;45.432;28.050;2022-10-20T00:11:58;6.0;6.0;
52290;PMS5003;39663;45.432;28.050;2022-10-20T00:12:29;6.0;6.0;
52290;PMS5003;39663;45.432;28.050;2022-10-20T00:13:01;5.0;4.0;
52290;PMS5003;39663;45.432;28.050;2022-10-20T00:13:32;7.0;6.0;
52290;PMS5003;39663;45.432;28.050;2022-10-20T00:14:04;7.0;4.0;
52290;PMS5003;39663;45.432;28.050;2022-10-20T00:14:37;9.0;7.0;
52290;PMS5003;39663;45.432;28.050;2022-10-20T00:15:09;7.0;5.0;
52290;PMS5003;39663;45.432;28.050;2022-10-20T00:15:46;3.0;3.0;
52290;PMS5003;39663;45.432;28.050;2022-10-20T00:16:18;6.0;6.0;
52290;PMS5003;39663;45.432;28.050;2022-10-20T00:16:51;6.0;6.0;
52290;PMS5003;39663;45.432;28.050;2022-10-20T00:17:22;5.0;4.0;
52290;PMS5003;39663;45.432;28.050;2022-10-20T00:17:54;8.0;8.0;
52290;PMS5003;39663;45.432;28.050;2022-10-20T00:18:26;10.0;5.0;
52290;PMS5003;39663;45.432;28.050;2022-10-20T00:18:58;5.0;5.0;
52290;PMS5003;39663;45.432;28.050;2022-10-20T00:19:30;6.0;6.0;
52290;PMS5003;39663;45.432;28.050;2022-10-20T00:20:01;4.0;4.0;
52290;PMS5003;39663;45.432;28.050;2022-10-20T00:20:33;8.0;7.0;
52290;PMS5003;39663;45.432;28.050;2022-10-20T00:21:04;7.0;4.0;
52290;PMS5003;39663;45.432;28.050;2022-10-20T00:21:37;8.0;5.0;
52290;PMS5003;39663;45.432;28.050;2022-10-20T00:22:08;6.0;6.0;
52290;PMS5003;39663;45.432;28.050;2022-10-20T00:22:40;7.0;7.0;
52290;PMS5003;39663;45.432;28.050;2022-10-20T00:23:11;4.0;4.0;
52290;PMS5003;39663;45.432;28.050;2022-10-20T00:23:43;7.0;7.0;
52290;PMS5003;39663;45.432;28.050;2022-10-20T00:24:14;8.0;6.0;
52290;PMS5003;39663;45.432;28.050;2022-10-20T00:24:46;5.0;5.0;
52290;PMS5003;39663;45.432;28.050;2022-10-20T00:25:17;7.0;6.0;
52290;PMS5003;39663;45.432;28.050;2022-10-20T00:25:59;6.0;5.0;
52290;PMS5003;39663;45.432;28.050;2022-10-20T00:26:31;4.0;4.0;
52290;PMS5003;39663;45.432;28.050;2022-10-20T00:27:02;4.0;4.0;
52290;PMS5003;39663;45.432;28.050;2022-10-20T00:27:34;6.0;6.0;
52290;PMS5003;39663;45.432;28.050;2022-10-20T00:28:05;5.0;5.0;
52290;PMS5003;39663;45.432;28.050;2022-10-20T00:28:37;12.0;9.0;
52290;PMS5003;39663;45.432;28.050;2022-10-20T00:29:08;8.0;6.0;
52290;PMS5003;39663;45.432;28.050;2022-10-20T00:29:40;7.0;6.0;
52290;PMS5003;39663;45.432;28.050;2022-10-20T00:30:11;5.0;5.0;
52290;PMS5003;39663;45.432;28.050;2022-10-20T00:30:42;6.0;6.0;
52290;PMS5003;39663;45.432;28.050;2022-10-20T00:31:14;6.0;6.0;
52290;PMS5003;39663;45.432;28.050;2022-10-20T00:31:47;5.0;5.0;
52290;PMS5003;39663;45.432;28.050;2022-10-20T00:32:18;5.0;5.0;
52290;PMS5003;39663;45.432;28.050;2022-10-20T00:32:50;6.0;6.0;
52290;PMS5003;39663;45.432;28.050;2022-10-20T00:33:21;5.0;5.0;
52290;PMS5003;39663;45.432;28.050;2022-10-20T00:33:53;5.0;5.0;
52290;PMS5003;39663;45.432;28.050;2022-10-20T00:34:24;5.0;4.0;
52290;PMS5003;39663;45.432;28.050;2022-10-20T00:34:55;4.0;4.0;
52290;PMS5003;39663;45.432;28.050;2022-10-20T00:35:27;6.0;5.0;
52290;PMS5003;39663;45.432;28.050;2022-10-20T00:35:59;4.0;4.0;
52290;PMS5003;39663;45.432;28.050;2022-10-20T00:36:31;9.0;7.0;
52290;PMS5003;39663;45.432;28.050;2022-10-20T00:37:02;5.0;5.0;
52290;PMS5003;39663;45.432;28.050;2022-10-20T00:37:34;5.0;4.0;
52290;PMS5003;39663;45.432;28.050;2022-10-20T00:38:05;7.0;7.0;
52290;PMS5003;39663;45.432;28.050;2022-10-20T00:38:37;5.0;5.0;
52290;PMS5003;39663;45.432;28.050;2022-10-20T00:39:08;5.0;5.0;
52290;PMS5003;39663;45.432;28.050;2022-10-20T00:39:39;5.0;5.0;
52290;PMS5003;39663;45.432;28.050;2022-10-20T00:40:11;6.0;6.0;
52290;PMS5003;39663;45.432;28.050;2022-10-20T00:40:43;7.0;5.0;
52290;PMS5003;39663;45.432;28.050;2022-10-20T00:41:15;7.0;7.0;
52290;PMS5003;39663;45.432;28.050;2022-10-20T00:41:48;5.0;5.0;
52290;PMS5003;39663;45.432;28.050;2022-10-20T00:42:19;8.0;5.0;
52290;PMS5003;39663;45.432;28.050;2022-10-20T00:42:50;5.0;5.0;
52290;PMS5003;39663;45.432;28.050;2022-10-20T00:43:22;4.0;4.0;
52290;PMS5003;39663;45.432;28.050;2022-10-20T00:44:47;6.0;6.0;
52290;PMS5003;39663;45.432;28.050;2022-10-20T00:45:21;8.0;6.0;
52290;PMS5003;39663;45.432;28.050;2022-10-20T00:45:53;10.0;8.0;
52290;PMS5003;39663;45.432;28.050;2022-10-20T00:46:29;4.0;4.0;
52290;PMS5003;39663;45.432;28.050;2022-10-20T00:47:08;6.0;6.0;
52290;PMS5003;39663;45.432;28.050;2022-10-20T00:47:42;6.0;5.0;
52290;PMS5003;39663;45.432;28.050;2022-10-20T00:48:18;7.0;7.0;
52290;PMS5003;39663;45.432;28.050;2022-10-20T00:48:52;5.0;5.0;
52290;PMS5003;39663;45.432;28.050;2022-10-20T00:49:26;5.0;5.0;
52290;PMS5003;39663;45.432;28.050;2022-10-20T00:49:58;6.0;4.0;
52290;PMS5003;39663;45.432;28.050;2022-10-20T00:50:37;9.0;8.0;
52290;PMS5003;39663;45.432;28.050;2022-10-20T00:51:11;10.0;10.0;
52290;PMS5003;39663;45.432;28.050;2022-10-20T00:51:45;6.0;6.0;
52290;PMS5003;39663;45.432;28.050;2022-10-20T00:52:19;9.0;5.0;
52290;PMS5003;39663;45.432;28.050;2022-10-20T00:52:51;7.0;5.0;
52290;PMS5003;39663;45.432;28.050;2022-10-20T00:53:25;5.0;4.0;
52290;PMS5003;39663;45.432;28.050;2022-10-20T00:54:00;7.0;7.0;
52290;PMS5003;39663;45.432;28.050;2022-10-20T00:54:36;7.0;6.0;
52290;PMS5003;39663;45.432;28.050;2022-10-20T00:55:08;6.0;6.0;
52290;PMS5003;39663;45.432;28.050;2022-10-20T00:55:42;7.0;6.0;
52290;PMS5003;39663;45.432;28.050;2022-10-20T00:56:18;5.0;5.0;
52290;PMS5003;39663;45.432;28.050;2022-10-20T00:56:50;7.0;7.0;
52290;PMS5003;39663;45.432;28.050;2022-10-20T00:57:24;7.0;6.0;
52290;PMS5003;39663;45.432;28.050;2022-10-20T00:57:56;9.0;7.0;
52290;PMS5003;39663;45.432;28.050;2022-10-20T00:58:29;5.0;5.0;
52290;PMS5003;39663;45.432;28.050;2022-10-20T00:59:38;6.0;6.0;
52290;PMS5003;39663;45.432;28.050;2022-10-20T01:00:10;6.0;5.0;
52290;PMS5003;39663;45.432;28.050;2022-10-20T01:00:43;6.0;4.0;
52290;PMS5003;39663;45.432;28.050;2022-10-20T01:01:32;5.0;5.0;
52290;PMS5003;39663;45.432;28.050;2022-10-20T01:02:04;7.0;7.0;
52290;PMS5003;39663;45.432;28.050;2022-10-20T01:02:38;6.0;6.0;
52290;PMS5003;39663;45.432;28.050;2022-10-20T01:03:12;6.0;6.0;
52290;PMS5003;39663;45.432;28.050;2022-10-20T01:03:47;9.0;7.0;
52290;PMS5003;39663;45.432;28.050;2022-10-20T01:04:20;7.0;7.0;
52290;PMS5003;39663;45.432;28.050;2022-10-20T01:04:53;5.0;5.0;
52290;PMS5003;39663;45.432;28.050;2022-10-20T01:05:24;5.0;5.0;
52290;PMS5003;39663;45.432;28.050;2022-10-20T01:05:56;7.0;5.0;
52290;PMS5003;39663;45.432;28.050;2022-10-20T01:06:27;8.0;6.0;
52290;PMS5003;39663;45.432;28.050;2022-10-20T01:06:59;6.0;6.0;
52290;PMS5003;39663;45.432;28.050;2022-10-20T01:07:30;7.0;4.0;
52290;PMS5003;39663;45.432;28.050;2022-10-20T01:08:02;6.0;5.0;
52290;PMS5003;39663;45.432;28.050;2022-10-20T01:08:33;9.0;8.0;
52290;PMS5003;39663;45.432;28.050;2022-10-20T01:09:05;8.0;5.0;
52290;PMS5003;39663;45.432;28.050;2022-10-20T01:09:37;5.0;5.0;
52290;PMS5003;39663;45.432;28.050;2022-10-20T01:10:09;7.0;5.0;
52290;PMS5003;39663;45.432;28.050;2022-10-20T01:10:43;5.0;5.0;
52290;PMS5003;39663;45.432;28.050;2022-10-20T01:11:25;6.0;5.0;
52290;PMS5003;39663;45.432;28.050;2022-10-20T01:12:08;6.0;4.0;
52290;PMS5003;39663;45.432;28.050;2022-10-20T01:12:49;5.0;5.0;
52290;PMS5003;39663;45.432;28.050;2022-10-20T01:13:27;5.0;5.0;
52290;PMS5003;39663;45.432;28.050;2022-10-20T01:14:11;7.0;6.0;
52290;PMS5003;39663;45.432;28.050;2022-10-20T01:14:53;7.0;5.0;
52290;PMS5003;39663;45.432;28.050;2022-10-20T01:15:33;5.0;4.0;
52290;PMS5003;39663;45.432;28.050;2022-10-20T01:16:13;6.0;6.0;
52290;PMS5003;39663;45.432;28.050;2022-10-20T01:16:54;8.0;4.0;
52290;PMS5003;39663;45.432;28.050;2022-10-20T01:17:37;5.0;4.0;
52290;PMS5003;39663;45.432;28.050;2022-10-20T01:18:19;5.0;5.0;
52290;PMS5003;39663;45.432;28.050;2022-10-20T01:18:58;4.0;4.0;
52290;PMS5003;39663;45.432;28.050;2022-10-20T01:19:45;6.0;5.0;
52290;PMS5003;39663;45.432;28.050;2022-10-20T01:21:19;3.0;3.0;
52290;PMS5003;39663;45.432;28.050;2022-10-20T01:22:08;6.0;5.0;
52290;PMS5003;39663;45.432;28.050;2022-10-20T01:22:56;4.0;4.0;
52290;PMS5003;39663;45.432;28.050;2022-10-20T01:24:21;7.0;5.0;
52290;PMS5003;39663;45.432;28.050;2022-10-20T01:25:20;7.0;7.0;
52290;PMS5003;39663;45.432;28.050;2022-10-20T01:26:11;5.0;5.0;
52290;PMS5003;39663;45.432;28.050;2022-10-20T01:27:36;4.0;4.0;
52290;PMS5003;39663;45.432;28.050;2022-10-20T01:28:10;4.0;4.0;
52290;PMS5003;39663;45.432;28.050;2022-10-20T01:28:51;4.0;4.0;
52290;PMS5003;39663;45.432;28.050;2022-10-20T01:29:28;6.0;5.0;
52290;PMS5003;39663;45.432;28.050;2022-10-20T01:30:06;7.0;5.0;
52290;PMS5003;39663;45.432;28.050;2022-10-20T01:30:43;6.0;6.0;
52290;PMS5003;39663;45.432;28.050;2022-10-20T01:31:20;6.0;6.0;
52290;PMS5003;39663;45.432;28.050;2022-10-20T01:32:01;8.0;6.0;
52290;PMS5003;39663;45.432;28.050;2022-10-20T01:32:46;5.0;5.0;
52290;PMS5003;39663;45.432;28.050;2022-10-20T01:33:27;8.0;5.0;
52290;PMS5003;39663;45.432;28.050;2022-10-20T01:34:07;5.0;5.0;
52290;PMS5003;39663;45.432;28.050;2022-10-20T01:34:45;8.0;8.0;
52290;PMS5003;39663;45.432;28.050;2022-10-20T01:35:30;6.0;5.0;
52290;PMS5003;39663;45.432;28.050;2022-10-20T01:36:09;4.0;4.0;
52290;PMS5003;39663;45.432;28.050;2022-10-20T01:36:45;8.0;6.0;
52290;PMS5003;39663;45.432;28.050;2022-10-20T01:37:24;6.0;6.0;
52290;PMS5003;39663;45.432;28.050;2022-10-20T01:38:02;4.0;4.0;
52290;PMS5003;39663;45.432;28.050;2022-10-20T01:38:41;5.0;5.0;
52290;PMS5003;39663;45.432;28.050;2022-10-20T01:39:18;7.0;5.0;
52290;PMS5003;39663;45.432;28.050;2022-10-20T01:39:56;5.0;5.0;
52290;PMS5003;39663;45.432;28.050;2022-10-20T01:40:35;5.0;5.0;
52290;PMS5003;39663;45.432;28.050;2022-10-20T01:41:13;7.0;6.0;
52290;PMS5003;39663;45.432;28.050;2022-10-20T01:41:52;5.0;5.0;
52290;PMS5003;39663;45.432;28.050;2022-10-20T01:42:26;7.0;5.0;
52290;PMS5003;39663;45.432;28.050;2022-10-20T01:42:59;8.0;7.0;
52290;PMS5003;39663;45.432;28.050;2022-10-20T01:43:35;5.0;5.0;
52290;PMS5003;39663;45.432;28.050;2022-10-20T01:44:09;5.0;4.0;
52290;PMS5003;39663;45.432;28.050;2022-10-20T01:44:44;5.0;5.0;
52290;PMS5003;39663;45.432;28.050;2022-10-20T01:45:18;6.0;5.0;
52290;PMS5003;39663;45.432;28.050;2022-10-20T01:45:54;6.0;4.0;
52290;PMS5003;39663;45.432;28.050;2022-10-20T01:46:27;5.0;5.0;
52290;PMS5003;39663;45.432;28.050;2022-10-20T01:47:00;6.0;6.0;
52290;PMS5003;39663;45.432;28.050;2022-10-20T01:47:33;5.0;5.0;
52290;PMS5003;39663;45.432;28.050;2022-10-20T01:48:06;4.0;4.0;
52290;PMS5003;39663;45.432;28.050;2022-10-20T01:48:39;5.0;4.0;
52290;PMS5003;39663;45.432;28.050;2022-10-20T01:49:11;5.0;5.0;
52290;PMS5003;39663;45.432;28.050;2022-10-20T01:49:45;5.0;5.0;
52290;PMS5003;39663;45.432;28.050;2022-10-20T01:50:18;4.0;4.0;
52290;PMS5003;39663;45.432;28.050;2022-10-20T01:50:51;9.0;6.0;
52290;PMS5003;39663;45.432;28.050;2022-10-20T01:51:22;6.0;6.0;
52290;PMS5003;39663;45.432;28.050;2022-10-20T01:51:54;6.0;6.0;
52290;PMS5003;39663;45.432;28.050;2022-10-20T01:52:26;7.0;6.0;
52290;PMS5003;39663;45.432;28.050;2022-10-20T01:52:58;7.0;5.0;
52290;PMS5003;39663;45.432;28.050;2022-10-20T01:53:31;6.0;4.0;
52290;PMS5003;39663;45.432;28.050;2022-10-20T01:54:02;7.0;6.0;
52290;PMS5003;39663;45.432;28.050;2022-10-20T01:54:33;3.0;3.0;
52290;PMS5003;39663;45.432;28.050;2022-10-20T01:55:10;6.0;6.0;
52290;PMS5003;39663;45.432;28.050;2022-10-20T01:55:43;6.0;5.0;
52290;PMS5003;39663;45.432;28.050;2022-10-20T01:56:15;6.0;6.0;
52290;PMS5003;39663;45.432;28.050;2022-10-20T01:56:54;6.0;5.0;
52290;PMS5003;39663;45.432;28.050;2022-10-20T01:57:44;8.0;6.0;
52290;PMS5003;39663;45.432;28.050;2022-10-20T01:58:37;9.0;8.0;
52290;PMS5003;39663;45.432;28.050;2022-10-20T01:59:31;5.0;5.0;
52290;PMS5003;39663;45.432;28.050;2022-10-20T02:00:12;5.0;5.0;
52290;PMS5003;39663;45.432;28.050;2022-10-20T02:00:45;6.0;6.0;
52290;PMS5003;39663;45.432;28.050;2022-10-20T02:01:21;7.0;5.0;
52290;PMS5003;39663;45.432;28.050;2022-10-20T02:02:07;4.0;4.0;
52290;PMS5003;39663;45.432;28.050;2022-10-20T02:02:54;6.0;6.0;
52290;PMS5003;39663;45.432;28.050;2022-10-20T02:03:42;5.0;5.0;
52290;PMS5003;39663;45.432;28.050;2022-10-20T02:04:22;5.0;5.0;
52290;PMS5003;39663;45.432;28.050;2022-10-20T02:05:04;5.0;5.0;
52290;PMS5003;39663;45.432;28.050;2022-10-20T02:05:52;8.0;6.0;
52290;PMS5003;39663;45.432;28.050;2022-10-20T02:06:39;5.0;5.0;
52290;PMS5003;39663;45.432;28.050;2022-10-20T02:07:20;7.0;6.0;
52290;PMS5003;39663;45.432;28.050;2022-10-20T02:07:57;6.0;6.0;
52290;PMS5003;39663;45.432;28.050;2022-10-20T02:08:37;6.0;6.0;
52290;PMS5003;39663;45.432;28.050;2022-10-20T02:09:14;4.0;4.0;
52290;PMS5003;39663;45.432;28.050;2022-10-20T02:09:49;5.0;5.0;
52290;PMS5003;39663;45.432;28.050;2022-10-20T02:10:26;3.0;3.0;
52290;PMS5003;39663;45.432;28.050;2022-10-20T02:11:02;9.0;6.0;
52290;PMS5003;39663;45.432;28.050;2022-10-20T02:11:39;6.0;6.0;
52290;PMS5003;39663;45.432;28.050;2022-10-20T02:12:16;9.0;6.0;
52290;PMS5003;39663;45.432;28.050;2022-10-20T02:12:52;5.0;4.0;
52290;PMS5003;39663;45.432;28.050;2022-10-20T02:13:29;4.0;2.0;
52290;PMS5003;39663;45.432;28.050;2022-10-20T02:14:04;6.0;5.0;
52290;PMS5003;39663;45.432;28.050;2022-10-20T02:14:37;5.0;5.0;
52290;PMS5003;39663;45.432;28.050;2022-10-20T02:15:11;6.0;5.0;
52290;PMS5003;39663;45.432;28.050;2022-10-20T02:15:48;5.0;4.0;
52290;PMS5003;39663;45.432;28.050;2022-10-20T02:16:24;5.0;5.0;
52290;PMS5003;39663;45.432;28.050;2022-10-20T02:16:59;7.0;7.0;
52290;PMS5003;39663;45.432;28.050;2022-10-20T02:17:35;6.0;6.0;
52290;PMS5003;39663;45.432;28.050;2022-10-20T02:18:12;4.0;4.0;
52290;PMS5003;39663;45.432;28.050;2022-10-20T02:18:48;4.0;4.0;
52290;PMS5003;39663;45.432;28.050;2022-10-20T02:19:20;4.0;4.0;
52290;PMS5003;39663;45.432;28.050;2022-10-20T02:19:55;5.0;5.0;
52290;PMS5003;39663;45.432;28.050;2022-10-20T02:20:27;6.0;6.0;
52290;PMS5003;39663;45.432;28.050;2022-10-20T02:21:01;5.0;5.0;
52290;PMS5003;39663;45.432;28.050;2022-10-20T02:21:34;7.0;5.0;
52290;PMS5003;39663;45.432;28.050;2022-10-20T02:22:06;3.0;3.0;
52290;PMS5003;39663;45.432;28.050;2022-10-20T02:22:40;5.0;5.0;
52290;PMS5003;39663;45.432;28.050;2022-10-20T02:23:12;4.0;4.0;
52290;PMS5003;39663;45.432;28.050;2022-10-20T02:23:43;5.0;5.0;
52290;PMS5003;39663;45.432;28.050;2022-10-20T02:24:17;3.0;3.0;
52290;PMS5003;39663;45.432;28.050;2022-10-20T02:24:52;5.0;3.0;
52290;PMS5003;39663;45.432;28.050;2022-10-20T02:25:24;7.0;3.0;
52290;PMS5003;39663;45.432;28.050;2022-10-20T02:25:56;5.0;3.0;
52290;PMS5003;39663;45.432;28.050;2022-10-20T02:26:30;6.0;5.0;
52290;PMS5003;39663;45.432;28.050;2022-10-20T02:27:04;7.0;6.0;
52290;PMS5003;39663;45.432;28.050;2022-10-20T02:27:41;5.0;5.0;
52290;PMS5003;39663;45.432;28.050;2022-10-20T02:28:16;6.0;6.0;
52290;PMS5003;39663;45.432;28.050;2022-10-20T02:28:52;5.0;4.0;
52290;PMS5003;39663;45.432;28.050;2022-10-20T02:29:27;4.0;4.0;
52290;PMS5003;39663;45.432;28.050;2022-10-20T02:30:04;5.0;5.0;
52290;PMS5003;39663;45.432;28.050;2022-10-20T02:30:38;6.0;4.0;
52290;PMS5003;39663;45.432;28.050;2022-10-20T02:31:11;5.0;5.0;
52290;PMS5003;39663;45.432;28.050;2022-10-20T02:31:43;4.0;4.0;
52290;PMS5003;39663;45.432;28.050;2022-10-20T02:32:16;5.0;4.0;
52290;PMS5003;39663;45.432;28.050;2022-10-20T02:32:49;7.0;5.0;
52290;PMS5003;39663;45.432;28.050;2022-10-20T02:33:22;6.0;3.0;
52290;PMS5003;39663;45.432;28.050;2022-10-20T02:33:55;5.0;4.0;
52290;PMS5003;39663;45.432;28.050;2022-10-20T02:34:27;5.0;5.0;
52290;PMS5003;39663;45.432;28.050;2022-10-20T02:34:58;4.0;4.0;
52290;PMS5003;39663;45.432;28.050;2022-10-20T02:35:30;4.0;4.0;
52290;PMS5003;39663;45.432;28.050;2022-10-20T02:36:04;7.0;6.0;
52290;PMS5003;39663;45.432;28.050;2022-10-20T02:36:41;4.0;4.0;
52290;PMS5003;39663;45.432;28.050;2022-10-20T02:37:13;5.0;5.0;
52290;PMS5003;39663;45.432;28.050;2022-10-20T02:37:45;2.0;2.0;
52290;PMS5003;39663;45.432;28.050;2022-10-20T02:38:17;6.0;4.0;
52290;PMS5003;39663;45.432;28.050;2022-10-20T02:38:48;2.0;2.0;
52290;PMS5003;39663;45.432;28.050;2022-10-20T02:39:20;6.0;4.0;
52290;PMS5003;39663;45.432;28.050;2022-10-20T02:39:51;5.0;5.0;
52290;PMS5003;39663;45.432;28.050;2022-10-20T02:40:23;6.0;4.0;
52290;PMS5003;39663;45.432;28.050;2022-10-20T02:40:55;5.0;5.0;
52290;PMS5003;39663;45.432;28.050;2022-10-20T02:41:26;6.0;4.0;
52290;PMS5003;39663;45.432;28.050;2022-10-20T02:41:57;4.0;4.0;
52290;PMS5003;39663;45.432;28.050;2022-10-20T02:42:29;5.0;5.0;
52290;PMS5003;39663;45.432;28.050;2022-10-20T02:43:00;3.0;3.0;
52290;PMS5003;39663;45.432;28.050;2022-10-20T02:43:31;3.0;3.0;
52290;PMS5003;39663;45.432;28.050;2022-10-20T02:44:03;4.0;4.0;
52290;PMS5003;39663;45.432;28.050;2022-10-20T02:44:34;4.0;4.0;
52290;PMS5003;39663;45.432;28.050;2022-10-20T02:45:06;4.0;4.0;
52290;PMS5003;39663;45.432;28.050;2022-10-20T02:45:39;4.0;4.0;
52290;PMS5003;39663;45.432;28.050;2022-10-20T02:46:10;5.0;3.0;
52290;PMS5003;39663;45.432;28.050;2022-10-20T02:46:42;4.0;4.0;
52290;PMS5003;39663;45.432;28.050;2022-10-20T02:47:13;3.0;3.0;
52290;PMS5003;39663;45.432;28.050;2022-10-20T02:47:45;4.0;4.0;
52290;PMS5003;39663;45.432;28.050;2022-10-20T02:48:16;2.0;2.0;
52290;PMS5003;39663;45.432;28.050;2022-10-20T02:48:47;5.0;3.0;
52290;PMS5003;39663;45.432;28.050;2022-10-20T02:49:19;4.0;4.0;
52290;PMS5003;39663;45.432;28.050;2022-10-20T02:49:51;3.0;2.0;
52290;PMS5003;39663;45.432;28.050;2022-10-20T02:50:22;5.0;2.0;
52290;PMS5003;39663;45.432;28.050;2022-10-20T02:50:54;2.0;2.0;
52290;PMS5003;39663;45.432;28.050;2022-10-20T02:51:25;3.0;3.0;
52290;PMS5003;39663;45.432;28.050;2022-10-20T02:51:56;4.0;4.0;
52290;PMS5003;39663;45.432;28.050;2022-10-20T02:52:28;3.0;3.0;
52290;PMS5003;39663;45.432;28.050;2022-10-20T02:52:59;5.0;3.0;
52290;PMS5003;39663;45.432;28.050;2022-10-20T02:53:31;3.0;3.0;
52290;PMS5003;39663;45.432;28.050;2022-10-20T02:54:02;4.0;3.0;
52290;PMS5003;39663;45.432;28.050;2022-10-20T02:54:34;3.0;3.0;
52290;PMS5003;39663;45.432;28.050;2022-10-20T02:55:06;4.0;4.0;
52290;PMS5003;39663;45.432;28.050;2022-10-20T02:55:37;4.0;4.0;
52290;PMS5003;39663;45.432;28.050;2022-10-20T02:56:09;2.0;2.0;
52290;PMS5003;39663;45.432;28.050;2022-10-20T02:56:41;2.0;2.0;
52290;PMS5003;39663;45.432;28.050;2022-10-20T02:57:12;4.0;2.0;
52290;PMS5003;39663;45.432;28.050;2022-10-20T02:57:44;4.0;3.0;
52290;PMS5003;39663;45.432;28.050;2022-10-20T02:58:15;4.0;4.0;
52290;PMS5003;39663;45.432;28.050;2022-10-20T02:58:46;3.0;3.0;
52290;PMS5003;39663;45.432;28.050;2022-10-20T02:59:18;3.0;2.0;
52290;PMS5003;39663;45.432;28.050;2022-10-20T02:59:49;2.0;2.0;
52290;PMS5003;39663;45.432;28.050;2022-10-20T03:00:21;2.0;2.0;
52290;PMS5003;39663;45.432;28.050;2022-10-20T03:00:52;3.0;3.0;
52290;PMS5003;39663;45.432;28.050;2022-10-20T03:01:24;2.0;2.0;
52290;PMS5003;39663;45.432;28.050;2022-10-20T03:01:55;2.0;2.0;
52290;PMS5003;39663;45.432;28.050;2022-10-20T03:02:27;4.0;2.0;
52290;PMS5003;39663;45.432;28.050;2022-10-20T03:02:58;2.0;2.0;
52290;PMS5003;39663;45.432;28.050;2022-10-20T03:03:29;3.0;3.0;
52290;PMS5003;39663;45.432;28.050;2022-10-20T03:04:01;2.0;2.0;
52290;PMS5003;39663;45.432;28.050;2022-10-20T03:04:32;1.0;1.0;
52290;PMS5003;39663;45.432;28.050;2022-10-20T03:05:04;2.0;2.0;
52290;PMS5003;39663;45.432;28.050;2022-10-20T03:05:37;8.0;3.0;
52290;PMS5003;39663;45.432;28.050;2022-10-20T03:06:10;3.0;3.0;
52290;PMS5003;39663;45.432;28.050;2022-10-20T03:06:43;4.0;4.0;
52290;PMS5003;39663;45.432;28.050;2022-10-20T03:07:15;2.0;2.0;
52290;PMS5003;39663;45.432;28.050;2022-10-20T03:07:46;5.0;1.0;
52290;PMS5003;39663;45.432;28.050;2022-10-20T03:08:18;2.0;1.0;
52290;PMS5003;39663;45.432;28.050;2022-10-20T03:08:50;2.0;2.0;
52290;PMS5003;39663;45.432;28.050;2022-10-20T03:09:21;4.0;4.0;
52290;PMS5003;39663;45.432;28.050;2022-10-20T03:09:53;1.0;1.0;
52290;PMS5003;39663;45.432;28.050;2022-10-20T03:10:24;3.0;3.0;
52290;PMS5003;39663;45.432;28.050;2022-10-20T03:10:55;3.0;2.0;
52290;PMS5003;39663;45.432;28.050;2022-10-20T03:11:27;4.0;2.0;
52290;PMS5003;39663;45.432;28.050;2022-10-20T03:11:58;2.0;2.0;
52290;PMS5003;39663;45.432;28.050;2022-10-20T03:12:29;2.0;2.0;
52290;PMS5003;39663;45.432;28.050;2022-10-20T03:13:01;2.0;2.0;
52290;PMS5003;39663;45.432;28.050;2022-10-20T03:13:32;1.0;1.0;
52290;PMS5003;39663;45.432;28.050;2022-10-20T03:14:04;3.0;3.0;
52290;PMS5003;39663;45.432;28.050;2022-10-20T03:14:35;3.0;3.0;
52290;PMS5003;39663;45.432;28.050;2022-10-20T03:15:06;2.0;2.0;
52290;PMS5003;39663;45.432;28.050;2022-10-20T03:15:38;3.0;2.0;
52290;PMS5003;39663;45.432;28.050;2022-10-20T03:16:09;4.0;4.0;
52290;PMS5003;39663;45.432;28.050;2022-10-20T03:16:41;3.0;3.0;
52290;PMS5003;39663;45.432;28.050;2022-10-20T03:17:12;3.0;3.0;
52290;PMS5003;39663;45.432;28.050;2022-10-20T03:17:44;2.0;2.0;
52290;PMS5003;39663;45.432;28.050;2022-10-20T03:18:15;2.0;2.0;
52290;PMS5003;39663;45.432;28.050;2022-10-20T03:18:47;4.0;2.0;
52290;PMS5003;39663;45.432;28.050;2022-10-20T03:19:18;4.0;2.0;
52290;PMS5003;39663;45.432;28.050;2022-10-20T03:19:49;3.0;3.0;
52290;PMS5003;39663;45.432;28.050;2022-10-20T03:20:21;1.0;1.0;
52290;PMS5003;39663;45.432;28.050;2022-10-20T03:20:53;3.0;3.0;
52290;PMS5003;39663;45.432;28.050;2022-10-20T03:21:24;1.0;1.0;
52290;PMS5003;39663;45.432;28.050;2022-10-20T03:21:56;3.0;3.0;
52290;PMS5003;39663;45.432;28.050;2022-10-20T03:22:27;2.0;2.0;
52290;PMS5003;39663;45.432;28.050;2022-10-20T03:22:58;2.0;2.0;
52290;PMS5003;39663;45.432;28.050;2022-10-20T03:23:30;1.0;1.0;
52290;PMS5003;39663;45.432;28.050;2022-10-20T03:24:01;2.0;1.0;
52290;PMS5003;39663;45.432;28.050;2022-10-20T03:24:33;4.0;3.0;
52290;PMS5003;39663;45.432;28.050;2022-10-20T03:25:05;2.0;2.0;
52290;PMS5003;39663;45.432;28.050;2022-10-20T03:25:37;2.0;2.0;
52290;PMS5003;39663;45.432;28.050;2022-10-20T03:26:09;1.0;0.0;
52290;PMS5003;39663;45.432;28.050;2022-10-20T03:26:42;5.0;3.0;
52290;PMS5003;39663;45.432;28.050;2022-10-20T03:27:13;3.0;2.0;
52290;PMS5003;39663;45.432;28.050;2022-10-20T03:27:44;2.0;2.0;
52290;PMS5003;39663;45.432;28.050;2022-10-20T03:28:16;3.0;1.0;
52290;PMS5003;39663;45.432;28.050;2022-10-20T03:28:47;2.0;2.0;
52290;PMS5003;39663;45.432;28.050;2022-10-20T03:29:19;2.0;1.0;
52290;PMS5003;39663;45.432;28.050;2022-10-20T03:29:50;4.0;3.0;
52290;PMS5003;39663;45.432;28.050;2022-10-20T03:30:21;2.0;2.0;
52290;PMS5003;39663;45.432;28.050;2022-10-20T03:30:53;2.0;2.0;
52290;PMS5003;39663;45.432;28.050;2022-10-20T03:31:24;5.0;3.0;
52290;PMS5003;39663;45.432;28.050;2022-10-20T03:31:56;5.0;4.0;
52290;PMS5003;39663;45.432;28.050;2022-10-20T03:32:27;3.0;3.0;
52290;PMS5003;39663;45.432;28.050;2022-10-20T03:32:58;1.0;1.0;
52290;PMS5003;39663;45.432;28.050;2022-10-20T03:33:30;4.0;4.0;
52290;PMS5003;39663;45.432;28.050;2022-10-20T03:34:01;3.0;3.0;
52290;PMS5003;39663;45.432;28.050;2022-10-20T03:34:33;2.0;2.0;
52290;PMS5003;39663;45.432;28.050;2022-10-20T03:35:04;4.0;3.0;
52290;PMS5003;39663;45.432;28.050;2022-10-20T03:35:36;2.0;2.0;
52290;PMS5003;39663;45.432;28.050;2022-10-20T03:36:08;3.0;3.0;
52290;PMS5003;39663;45.432;28.050;2022-10-20T03:36:39;2.0;2.0;
52290;PMS5003;39663;45.432;28.050;2022-10-20T03:37:10;4.0;2.0;
52290;PMS5003;39663;45.432;28.050;2022-10-20T03:37:42;3.0;3.0;
52290;PMS5003;39663;45.432;28.050;2022-10-20T03:38:13;6.0;4.0;
52290;PMS5003;39663;45.432;28.050;2022-10-20T03:38:45;3.0;3.0;
52290;PMS5003;39663;45.432;28.050;2022-10-20T03:39:16;3.0;3.0;
52290;PMS5003;39663;45.432;28.050;2022-10-20T03:39:48;3.0;3.0;
52290;PMS5003;39663;45.432;28.050;2022-10-20T03:40:20;4.0;4.0;